createdAt,value
2022-07-25T16:01:52.220Z,12.00
2022-07-25T16:03:24.107Z,9.80
2022-07-25T16:04:55.883Z,10.00
2022-07-25T16:06:27.900Z,9.00
2022-07-25T16:08:01.233Z,12.00
2022-07-25T16:09:33.068Z,7.80
2022-07-25T16:11:05.073Z,8.00
2022-07-25T16:12:37.238Z,8.00
2022-07-25T16:14:11.148Z,8.80
2022-07-25T16:15:42.977Z,8.20
2022-07-25T16:17:14.988Z,9.40
2022-07-25T16:18:49.352Z,10.00
2022-07-25T16:20:21.228Z,8.40
2022-07-25T16:21:53.112Z,6.80
2022-07-25T16:23:28.101Z,8.60
2022-07-25T16:25:03.067Z,9.60
2022-07-25T16:26:34.880Z,9.60
2022-07-25T16:28:07.033Z,8.00
2022-07-25T16:29:39.266Z,10.40
2022-07-25T16:31:11.524Z,9.40
2022-07-25T16:32:43.445Z,9.00
2022-07-25T16:34:15.231Z,10.80
2022-07-25T16:35:47.085Z,7.40
2022-07-25T16:37:22.355Z,8.40
2022-07-25T16:38:54.114Z,7.00
2022-07-25T16:40:30.756Z,8.20
2022-07-25T16:42:02.879Z,9.60
2022-07-25T16:43:34.645Z,2.00
2022-07-25T16:45:07.145Z,8.40
2022-07-25T16:46:38.952Z,8.40
2022-07-25T16:48:12.632Z,7.20
2022-07-25T16:49:44.592Z,10.60
2022-07-25T16:51:16.456Z,7.00
2022-07-25T16:52:48.635Z,9.60
2022-07-25T16:54:20.528Z,9.40
2022-07-25T16:55:52.246Z,9.00
2022-07-25T16:57:25.011Z,9.40
2022-07-25T16:58:57.066Z,9.00
2022-07-25T17:00:29.090Z,5.40
2022-07-25T17:02:01.017Z,10.00
2022-07-25T17:03:32.887Z,8.80
2022-07-25T17:05:06.302Z,9.00
2022-07-25T17:06:38.142Z,8.40
2022-07-25T17:08:09.934Z,8.80
2022-07-25T17:09:41.918Z,6.00
2022-07-25T17:11:14.333Z,9.00
2022-07-25T17:12:46.122Z,9.20
2022-07-25T17:14:18.077Z,9.60
2022-07-25T17:15:50.616Z,10.00
2022-07-25T17:17:22.538Z,8.80
2022-07-25T17:18:56.935Z,3.00
2022-07-25T17:20:28.995Z,7.20
2022-07-25T17:22:01.974Z,10.40
2022-07-25T17:23:34.812Z,13.80
2022-07-25T17:25:07.499Z,27.40
2022-07-25T17:26:40.327Z,22.00
2022-07-25T17:28:12.106Z,37.80
2022-07-25T17:29:44.118Z,41.60
2022-07-25T17:31:16.034Z,61.75
2022-07-25T17:32:49.175Z,44.00
2022-07-25T17:34:21.829Z,57.40
2022-07-25T17:35:53.772Z,48.00
2022-07-25T17:37:27.764Z,47.60
2022-07-25T17:39:04.916Z,53.20
2022-07-25T17:40:36.986Z,56.40
2022-07-25T17:42:09.040Z,51.40
2022-07-25T17:43:41.004Z,51.80
2022-07-25T17:45:13.016Z,52.60
2022-07-25T17:46:45.062Z,51.20
2022-07-25T17:48:16.989Z,52.00
2022-07-25T17:49:50.046Z,52.40
2022-07-25T17:51:23.349Z,51.60
2022-07-25T17:52:55.683Z,48.80
2022-07-25T17:54:27.606Z,48.80
2022-07-25T17:55:59.592Z,49.20
2022-07-25T17:57:31.369Z,46.80
2022-07-25T17:59:03.201Z,48.80
2022-07-25T18:00:36.475Z,44.20
2022-07-25T18:02:08.348Z,45.80
2022-07-25T18:03:40.871Z,43.80
2022-07-25T18:05:13.415Z,43.80
2022-07-25T18:06:48.453Z,48.80
2022-07-25T18:08:23.869Z,47.00
2022-07-25T18:09:55.670Z,45.00
2022-07-25T18:11:27.840Z,41.80
2022-07-25T18:13:01.977Z,42.20
2022-07-25T18:14:33.962Z,43.60
2022-07-25T18:16:06.776Z,42.60
2022-07-25T18:17:39.148Z,47.40
2022-07-25T18:19:12.691Z,40.40
2022-07-25T18:20:44.615Z,45.20
2022-07-25T18:22:19.236Z,39.40
2022-07-25T18:23:51.543Z,46.20
2022-07-25T18:25:23.419Z,41.80
2022-07-25T18:26:55.116Z,45.00
2022-07-25T18:28:28.287Z,45.00
2022-07-25T18:30:05.919Z,40.20
2022-07-25T18:31:37.821Z,41.00
2022-07-25T18:33:09.903Z,42.20
2022-07-25T18:34:41.705Z,42.40
2022-07-25T18:36:13.388Z,42.00
2022-07-25T18:37:46.616Z,40.80
2022-07-25T18:39:18.386Z,42.60
2022-07-25T18:41:06.574Z,37.00
2022-07-25T18:42:43.515Z,31.80
2022-07-25T18:44:15.450Z,38.80
2022-07-25T18:45:48.005Z,39.80
2022-07-25T18:47:23.294Z,40.60
2022-07-25T18:48:56.649Z,40.20
2022-07-25T18:50:28.421Z,42.60
2022-07-25T18:52:00.197Z,36.20
2022-07-25T18:53:31.977Z,38.20
2022-07-25T18:55:04.744Z,41.60
2022-07-25T18:56:36.895Z,41.60
2022-07-25T18:58:10.031Z,40.60
2022-07-25T18:59:42.123Z,37.20
2022-07-25T19:01:13.996Z,43.40
2022-07-25T19:02:45.901Z,44.20
2022-07-25T19:04:18.671Z,41.80
2022-07-25T19:05:50.490Z,43.00
2022-07-25T19:07:22.356Z,43.80
2022-07-25T19:08:54.177Z,43.20
2022-07-25T19:10:26.172Z,45.20
2022-07-25T19:11:57.974Z,44.80
2022-07-25T19:15:23.724Z,44.20
2022-07-25T19:16:55.557Z,49.20
2022-07-25T19:18:29.518Z,44.40
2022-07-25T19:20:01.428Z,49.20
2022-07-25T19:21:34.277Z,48.00
2022-07-25T19:23:06.145Z,46.60
2022-07-25T19:24:39.097Z,48.00
2022-07-25T19:26:10.996Z,49.00
2022-07-25T19:27:42.736Z,48.40
2022-07-25T19:29:16.472Z,47.40
2022-07-25T19:30:48.462Z,45.60
2022-07-25T19:32:21.059Z,47.40
2022-07-25T19:33:52.787Z,45.40
2022-07-25T19:35:26.384Z,44.40
2022-07-25T19:36:58.314Z,45.80
2022-07-25T19:38:30.189Z,47.40
2022-07-25T19:40:01.928Z,46.20
2022-07-25T19:41:33.806Z,46.20
2022-07-25T19:43:05.539Z,46.40
2022-07-25T19:44:37.265Z,48.00
2022-07-25T19:46:09.040Z,46.00
2022-07-25T19:47:41.049Z,39.80
2022-07-25T19:49:13.266Z,44.40
2022-07-25T19:50:45.656Z,41.60
2022-07-25T19:52:17.483Z,41.40
2022-07-25T19:53:49.216Z,41.00
2022-07-25T19:55:21.590Z,43.00
2022-07-25T19:56:55.220Z,40.60
2022-07-25T19:58:27.091Z,39.60
2022-07-25T19:59:59.017Z,39.40
2022-07-25T20:01:34.419Z,34.60
2022-07-25T20:03:06.233Z,36.20
2022-07-25T20:04:38.157Z,36.20
2022-07-25T20:06:09.995Z,41.60
2022-07-25T20:07:41.889Z,37.80
2022-07-25T20:09:13.833Z,41.00
2022-07-25T20:10:48.117Z,38.60
2022-07-25T20:12:19.879Z,38.40
2022-07-25T20:13:51.719Z,41.80
2022-07-25T20:15:23.559Z,42.80
2022-07-25T20:16:58.179Z,45.00
2022-07-25T20:18:30.213Z,43.80
2022-07-25T20:20:02.922Z,50.20
2022-07-25T20:21:36.809Z,45.40
2022-07-25T20:23:08.699Z,41.80
2022-07-25T20:24:40.621Z,42.60
2022-07-25T20:26:12.988Z,44.60
2022-07-25T20:27:44.745Z,43.80
2022-07-25T20:29:16.760Z,45.80
2022-07-25T20:30:49.784Z,46.40
2022-07-25T20:32:21.964Z,45.40
2022-07-25T20:33:53.781Z,43.60
2022-07-25T20:35:25.630Z,42.40
2022-07-25T20:36:57.337Z,40.20
2022-07-25T20:38:29.208Z,43.20
2022-07-25T20:40:01.006Z,43.40
2022-07-25T20:41:32.859Z,42.20
2022-07-25T20:43:05.012Z,41.80
2022-07-25T20:44:36.854Z,41.60
2022-07-25T20:46:09.630Z,43.20
2022-07-25T20:47:42.123Z,39.60
2022-07-25T20:49:14.447Z,43.60
2022-07-25T20:50:48.922Z,41.00
2022-07-25T20:52:20.769Z,41.20
2022-07-25T20:53:53.409Z,40.80
2022-07-25T20:55:28.472Z,41.40
2022-07-25T20:57:00.846Z,41.00
2022-07-25T20:58:32.781Z,41.40
2022-07-25T21:00:04.901Z,43.00
2022-07-25T21:01:38.564Z,42.40
2022-07-25T21:03:10.445Z,40.00
2022-07-25T21:04:42.366Z,39.80
2022-07-25T21:06:14.194Z,40.40
2022-07-25T21:07:46.007Z,41.20
2022-07-25T21:09:17.853Z,39.60
2022-07-25T21:10:49.701Z,35.80
2022-07-25T21:12:21.533Z,35.40
2022-07-25T21:13:53.336Z,38.20
2022-07-25T21:15:25.159Z,38.40
2022-07-25T21:16:56.943Z,35.20
2022-07-25T21:18:28.775Z,39.60
2022-07-25T21:20:00.707Z,36.00
2022-07-25T21:21:32.551Z,31.60
2022-07-25T21:23:04.897Z,33.40
2022-07-25T21:24:36.741Z,34.20
2022-07-25T21:26:08.549Z,33.00
2022-07-25T21:27:40.380Z,36.00
2022-07-25T21:29:12.371Z,36.00
2022-07-25T21:30:44.233Z,34.80
2022-07-25T21:32:17.439Z,33.80
2022-07-25T21:33:49.407Z,36.00
2022-07-25T21:35:21.253Z,35.00
2022-07-25T21:36:53.105Z,30.40
2022-07-25T21:38:27.535Z,32.80
2022-07-25T21:40:00.197Z,34.80
2022-07-25T21:41:32.021Z,30.60
2022-07-25T21:43:04.907Z,31.40
2022-07-25T21:44:40.740Z,30.80
2022-07-25T21:46:12.541Z,33.00
2022-07-25T21:47:44.455Z,32.00
2022-07-25T21:49:40.968Z,33.00
2022-07-25T21:51:19.260Z,30.20
2022-07-25T21:52:55.346Z,30.20
2022-07-25T21:54:27.138Z,30.20
2022-07-25T21:55:59.034Z,27.60
2022-07-25T21:57:31.283Z,30.40
2022-07-25T21:59:03.285Z,31.40
2022-07-25T22:00:45.197Z,23.80
2022-07-25T22:02:18.244Z,25.00
2022-07-25T22:03:52.073Z,25.40
2022-07-25T22:05:24.231Z,26.00
2022-07-25T22:06:55.948Z,25.80
2022-07-25T22:08:27.829Z,23.60
2022-07-25T22:09:59.675Z,27.00
2022-07-25T22:11:39.126Z,22.80
2022-07-25T22:13:18.313Z,24.40
2022-07-25T22:14:50.103Z,24.60
2022-07-25T22:16:21.932Z,26.40
2022-07-25T22:17:53.880Z,19.80
2022-07-25T22:19:25.641Z,23.00
2022-07-25T22:20:57.375Z,25.20
2022-07-25T22:22:29.074Z,25.60
2022-07-25T22:24:01.072Z,22.60
2022-07-25T22:25:32.923Z,19.60
2022-07-25T22:27:04.779Z,29.40
2022-07-25T22:28:36.523Z,36.40
2022-07-25T22:30:10.533Z,33.00
2022-07-25T22:31:44.608Z,40.20
2022-07-25T22:33:16.382Z,39.40
2022-07-25T22:34:48.151Z,42.80
